createdAt,value
2023-03-16T00:02:12.609Z,2.88
2023-03-16T00:04:48.032Z,2.88
2023-03-16T00:07:17.724Z,2.82
2023-03-16T00:09:47.368Z,2.67
2023-03-16T00:12:22.294Z,2.31
2023-03-16T00:14:53.817Z,2.40
2023-03-16T00:17:23.564Z,2.26
2023-03-16T00:19:55.634Z,2.24
2023-03-16T00:22:32.113Z,2.31
2023-03-16T00:25:01.474Z,2.35
2023-03-16T00:27:31.835Z,2.40
2023-03-16T00:30:03.390Z,2.25
2023-03-16T00:32:36.823Z,2.45
2023-03-16T00:35:17.159Z,2.47
2023-03-16T00:37:46.582Z,2.47
2023-03-16T00:40:16.450Z,2.40
2023-03-16T00:42:54.694Z,2.49
2023-03-16T00:45:25.776Z,2.51
2023-03-16T00:47:55.461Z,2.53
2023-03-16T00:50:24.633Z,2.47
2023-03-16T00:52:54.616Z,2.51
2023-03-16T00:55:23.763Z,2.48
2023-03-16T00:57:53.004Z,2.51
2023-03-16T01:00:26.216Z,2.50
2023-03-16T01:02:57.619Z,2.61
2023-03-16T01:05:36.963Z,2.55
2023-03-16T01:08:06.894Z,2.54
2023-03-16T01:10:36.744Z,2.48
2023-03-16T01:13:12.711Z,2.58
2023-03-16T01:15:42.502Z,2.58
2023-03-16T01:18:14.316Z,2.56
2023-03-16T01:20:50.625Z,2.46
2023-03-16T01:23:20.235Z,2.55
2023-03-16T01:25:52.803Z,2.44
2023-03-16T01:28:29.320Z,2.48
2023-03-16T01:31:04.806Z,2.37
2023-03-16T01:36:17.618Z,2.40
2023-03-16T01:39:03.683Z,2.40
2023-03-16T01:41:43.834Z,2.52
2023-03-16T01:44:20.622Z,2.56
2023-03-16T01:46:50.041Z,2.50
2023-03-16T01:49:32.421Z,2.57
2023-03-16T01:52:07.433Z,2.58
2023-03-16T01:57:18.556Z,2.52
2023-03-16T01:59:53.384Z,2.48
2023-03-16T02:02:25.848Z,2.48
2023-03-16T02:05:03.767Z,2.46
2023-03-16T02:07:37.969Z,2.52
2023-03-16T02:10:14.628Z,2.52
2023-03-16T02:12:45.486Z,2.49
2023-03-16T02:15:16.560Z,2.53
2023-03-16T02:17:47.654Z,2.38
2023-03-16T02:20:30.686Z,2.61
2023-03-16T02:23:00.761Z,2.63
2023-03-16T02:25:42.294Z,2.58
2023-03-16T02:28:20.886Z,2.64
2023-03-16T02:30:58.546Z,2.47
2023-03-16T02:33:28.695Z,2.59
2023-03-16T02:35:58.020Z,2.52
2023-03-16T02:38:28.428Z,2.57
2023-03-16T02:41:01.592Z,2.51
2023-03-16T02:43:39.398Z,2.59
2023-03-16T02:46:35.276Z,2.56
2023-03-16T02:49:09.625Z,2.68
2023-03-16T02:51:40.046Z,2.55
2023-03-16T02:54:09.578Z,2.72
2023-03-16T02:56:39.128Z,2.54
2023-03-16T02:59:08.575Z,2.53
2023-03-16T03:01:40.684Z,2.55
2023-03-16T03:04:10.762Z,2.56
2023-03-16T03:06:39.982Z,2.59
2023-03-16T03:09:11.062Z,2.50
2023-03-16T03:11:40.694Z,2.55
2023-03-16T03:16:51.926Z,2.54
2023-03-16T03:19:20.873Z,2.66
2023-03-16T03:21:50.539Z,2.59
2023-03-16T03:24:27.689Z,2.63
2023-03-16T03:26:56.929Z,2.61
2023-03-16T03:29:34.384Z,2.68
2023-03-16T03:32:06.308Z,2.59
2023-03-16T03:34:42.012Z,2.60
2023-03-16T03:37:11.398Z,2.55
2023-03-16T03:39:43.066Z,2.57
2023-03-16T03:42:13.334Z,2.56
2023-03-16T03:44:52.662Z,2.69
2023-03-16T03:47:24.111Z,2.41
2023-03-16T03:49:53.573Z,2.68
2023-03-16T03:52:22.855Z,2.66
2023-03-16T03:54:52.115Z,2.52
2023-03-16T03:57:22.005Z,2.66
2023-03-16T03:59:52.125Z,2.48
2023-03-16T04:02:48.456Z,2.51
2023-03-16T04:05:27.337Z,2.47
2023-03-16T04:08:02.224Z,2.49
2023-03-16T04:10:32.902Z,2.17
2023-03-16T04:13:02.982Z,2.43
2023-03-16T04:15:38.012Z,2.49
2023-03-16T04:18:25.579Z,2.50
2023-03-16T04:20:55.328Z,2.51
2023-03-16T04:23:34.825Z,2.26
2023-03-16T04:26:05.170Z,2.50
2023-03-16T04:28:40.199Z,2.29
2023-03-16T04:31:12.461Z,2.51
2023-03-16T04:33:47.564Z,2.47
2023-03-16T04:36:17.068Z,2.36
2023-03-16T04:38:46.858Z,2.37
2023-03-16T04:41:16.891Z,2.19
2023-03-16T04:43:54.599Z,2.21
2023-03-16T04:46:27.185Z,2.22
2023-03-16T04:48:58.849Z,2.35
2023-03-16T04:51:30.903Z,2.34
2023-03-16T04:54:10.834Z,2.21
2023-03-16T04:56:46.366Z,2.20
2023-03-16T04:59:29.307Z,2.09
2023-03-16T05:02:09.223Z,2.10
2023-03-16T05:04:41.051Z,2.06
2023-03-16T05:07:13.651Z,2.03
2023-03-16T05:09:47.129Z,2.08
2023-03-16T05:12:16.991Z,2.22
2023-03-16T05:14:47.883Z,2.31
2023-03-16T05:20:18.291Z,2.39
2023-03-16T05:22:58.223Z,2.37
2023-03-16T05:25:31.177Z,2.26
2023-03-16T05:28:05.007Z,2.43
2023-03-16T05:30:56.062Z,2.49
2023-03-16T05:33:30.609Z,2.42
2023-03-16T05:36:09.125Z,2.32
2023-03-16T05:38:41.610Z,2.48
2023-03-16T05:41:24.828Z,2.65
2023-03-16T05:44:05.754Z,2.62
2023-03-16T05:47:04.358Z,2.75
2023-03-16T05:49:35.936Z,2.73
2023-03-16T05:52:12.726Z,2.67
2023-03-16T05:54:47.104Z,2.49
2023-03-16T05:57:17.182Z,2.52
2023-03-16T05:59:48.649Z,2.54
2023-03-16T06:02:18.244Z,2.41
2023-03-16T06:04:47.828Z,2.43
2023-03-16T06:07:24.119Z,2.59
2023-03-16T06:09:56.652Z,2.77
2023-03-16T06:12:34.030Z,2.87
2023-03-16T06:15:03.266Z,2.96
2023-03-16T06:17:32.843Z,3.02
2023-03-16T06:20:10.575Z,3.03
2023-03-16T06:22:44.598Z,2.88
2023-03-16T06:25:15.750Z,3.21
2023-03-16T06:27:48.721Z,3.17
2023-03-16T06:30:29.889Z,3.14
2023-03-16T06:32:59.826Z,3.03
2023-03-16T06:35:29.119Z,3.10
2023-03-16T06:38:29.745Z,3.08
2023-03-16T06:41:03.927Z,2.94
2023-03-16T06:43:36.573Z,3.01
2023-03-16T06:46:06.276Z,3.04
2023-03-16T06:48:35.659Z,3.15
2023-03-16T06:51:11.075Z,3.05
2023-03-16T06:53:42.252Z,3.15
2023-03-16T06:56:11.612Z,3.14
2023-03-16T07:01:23.705Z,3.18
2023-03-16T07:03:52.877Z,3.11
2023-03-16T07:06:26.840Z,3.41
2023-03-16T07:08:58.772Z,3.64
2023-03-16T07:11:30.241Z,3.67
2023-03-16T07:14:01.205Z,3.50
2023-03-16T07:16:32.568Z,3.57
2023-03-16T07:19:05.091Z,3.72
2023-03-16T07:21:42.372Z,3.92
2023-03-16T07:24:18.619Z,4.12
2023-03-16T07:26:53.391Z,4.25
2023-03-16T07:29:33.735Z,4.36
2023-03-16T07:32:05.033Z,4.27
2023-03-16T07:34:39.279Z,4.50
2023-03-16T07:37:25.090Z,4.32
2023-03-16T07:40:00.652Z,4.30
2023-03-16T07:42:29.943Z,4.28
2023-03-16T07:45:09.171Z,4.00
2023-03-16T07:47:39.233Z,4.01
2023-03-16T07:50:18.966Z,4.02
2023-03-16T07:52:50.294Z,4.00
2023-03-16T07:55:26.628Z,4.01
2023-03-16T07:57:56.945Z,4.17
2023-03-16T08:00:32.453Z,4.35
2023-03-16T08:05:38.050Z,4.18
2023-03-16T08:08:23.245Z,4.13
2023-03-16T08:10:56.594Z,3.98
2023-03-16T08:13:35.128Z,3.72
2023-03-16T08:16:05.073Z,3.73
2023-03-16T08:18:41.448Z,3.96
2023-03-16T08:21:11.528Z,4.26
2023-03-16T08:23:47.058Z,4.55
2023-03-16T08:26:19.221Z,4.75
2023-03-16T08:28:56.782Z,4.85
2023-03-16T08:31:26.329Z,4.62
2023-03-16T08:34:09.651Z,4.80
2023-03-16T08:36:43.988Z,4.76
2023-03-16T08:39:15.396Z,4.68
2023-03-16T08:41:50.790Z,4.57
2023-03-16T08:44:39.644Z,4.64
2023-03-16T08:47:10.148Z,4.50
2023-03-16T08:49:46.580Z,4.39
2023-03-16T08:52:18.435Z,4.31
2023-03-16T08:55:03.065Z,4.06
2023-03-16T08:57:41.353Z,4.16
2023-03-16T09:00:13.520Z,4.27
2023-03-16T09:02:43.445Z,4.23
2023-03-16T09:05:14.427Z,4.27
2023-03-16T09:07:44.169Z,4.26
2023-03-16T09:10:20.680Z,4.27
2023-03-16T09:12:52.326Z,4.24
2023-03-16T09:15:23.494Z,4.12
2023-03-16T09:17:53.967Z,4.08
2023-03-16T09:20:26.910Z,4.01
2023-03-16T09:23:04.309Z,4.02
2023-03-16T09:28:10.943Z,3.81
2023-03-16T09:30:45.806Z,3.83
2023-03-16T09:33:15.075Z,4.08
2023-03-16T09:35:51.654Z,4.29
2023-03-16T09:38:21.350Z,4.45
2023-03-16T09:40:57.611Z,4.50
2023-03-16T09:43:48.935Z,4.44
2023-03-16T09:46:28.617Z,4.37
2023-03-16T09:49:04.585Z,4.35
2023-03-16T09:51:51.663Z,4.32
2023-03-16T09:54:27.290Z,4.34
2023-03-16T09:57:03.289Z,4.51
2023-03-16T09:59:34.411Z,4.63
2023-03-16T10:02:35.293Z,4.85
2023-03-16T10:05:10.400Z,5.09
2023-03-16T10:07:52.246Z,5.00
2023-03-16T10:10:40.962Z,4.76
2023-03-16T10:13:19.531Z,4.80
2023-03-16T10:15:52.999Z,4.90
2023-03-16T10:18:24.273Z,5.04
2023-03-16T10:20:55.290Z,5.19
2023-03-16T10:23:27.283Z,5.41
2023-03-16T10:25:58.043Z,5.56
2023-03-16T10:31:14.721Z,5.73
2023-03-16T10:33:44.385Z,5.53
2023-03-16T10:36:18.933Z,5.33
2023-03-16T10:38:54.873Z,4.92
2023-03-16T10:41:27.550Z,4.42
2023-03-16T10:44:04.473Z,4.50
2023-03-16T10:46:40.467Z,4.59
2023-03-16T10:49:27.159Z,4.51
2023-03-16T10:52:08.669Z,4.15
2023-03-16T10:54:40.965Z,3.93
2023-03-16T10:57:21.094Z,3.77
2023-03-16T11:00:15.965Z,3.55
2023-03-16T11:02:53.822Z,3.63
2023-03-16T11:05:31.923Z,3.76
2023-03-16T11:08:03.595Z,3.80
2023-03-16T11:10:40.490Z,3.92
2023-03-16T11:13:24.234Z,3.87
2023-03-16T11:16:01.225Z,3.86
2023-03-16T11:18:47.024Z,3.99
2023-03-16T11:21:32.155Z,4.12
2023-03-16T11:24:04.602Z,4.07
2023-03-16T11:26:48.945Z,3.96
2023-03-16T11:29:25.273Z,3.82
2023-03-16T11:31:58.219Z,3.75
2023-03-16T11:34:31.595Z,3.80
2023-03-16T11:37:12.900Z,4.03
2023-03-16T11:39:52.295Z,4.27
2023-03-16T11:42:35.573Z,4.43
2023-03-16T11:45:20.715Z,4.43
2023-03-16T11:48:12.457Z,4.30
2023-03-16T11:50:59.363Z,4.41
2023-03-16T11:53:48.272Z,4.51
2023-03-16T11:56:24.982Z,4.47
2023-03-16T11:59:22.316Z,4.34
2023-03-16T12:02:04.691Z,4.35
2023-03-16T12:04:48.111Z,4.35
2023-03-16T12:07:35.502Z,4.34
2023-03-16T12:10:20.014Z,4.33
2023-03-16T12:13:03.757Z,4.35
2023-03-16T12:15:38.038Z,4.31
2023-03-16T12:18:15.834Z,4.34
2023-03-16T12:20:51.927Z,4.36
2023-03-16T12:23:29.249Z,4.34
2023-03-16T12:26:01.366Z,4.45
2023-03-16T12:28:33.022Z,4.51
2023-03-16T12:31:15.725Z,4.60
2023-03-16T12:34:01.542Z,4.69
2023-03-16T12:37:00.629Z,4.68
2023-03-16T12:40:07.224Z,4.23
2023-03-16T12:43:11.219Z,4.46
2023-03-16T12:52:57.925Z,3.90
2023-03-16T12:55:46.438Z,3.98
2023-03-16T12:58:24.617Z,3.93
2023-03-16T13:01:00.501Z,3.97
2023-03-16T13:03:30.903Z,3.97
2023-03-16T13:06:03.053Z,3.92
2023-03-16T13:08:45.685Z,3.75
2023-03-16T13:11:16.117Z,3.56
2023-03-16T13:14:05.995Z,3.42
2023-03-16T13:16:38.126Z,3.37
2023-03-16T13:19:27.937Z,3.17
2023-03-16T13:22:06.546Z,2.79
2023-03-16T13:24:41.860Z,2.80
2023-03-16T13:27:28.972Z,2.78
2023-03-16T13:30:01.951Z,2.66
2023-03-16T13:32:36.206Z,2.62
2023-03-16T13:35:11.776Z,2.33
2023-03-16T13:37:44.326Z,2.24
2023-03-16T13:40:24.268Z,2.19
2023-03-16T13:42:55.878Z,2.39
2023-03-16T13:45:34.771Z,2.32
2023-03-16T13:48:05.102Z,2.25
2023-03-16T13:50:35.750Z,2.29
2023-03-16T13:53:08.384Z,2.32
2023-03-16T13:55:47.390Z,2.19
2023-03-16T13:58:25.498Z,2.44
2023-03-16T14:01:01.221Z,2.65
2023-03-16T14:03:35.591Z,2.86
2023-03-16T14:06:05.856Z,2.95
2023-03-16T14:08:35.696Z,3.02
2023-03-16T14:11:07.044Z,3.25
2023-03-16T14:13:38.906Z,3.38
2023-03-16T14:16:18.030Z,3.43
2023-03-16T14:18:49.381Z,3.23
2023-03-16T14:21:21.467Z,2.79
2023-03-16T14:23:54.994Z,2.53
2023-03-16T14:26:26.687Z,2.35
2023-03-16T14:28:57.992Z,2.29
2023-03-16T14:31:35.507Z,2.32
2023-03-16T14:34:08.461Z,2.39
2023-03-16T14:36:43.035Z,2.33
2023-03-16T14:39:13.639Z,2.05
2023-03-16T14:41:45.417Z,2.00
2023-03-16T14:44:27.607Z,1.99
2023-03-16T14:46:59.050Z,1.94
2023-03-16T14:49:31.347Z,1.91
2023-03-16T14:52:08.060Z,1.89
2023-03-16T14:54:37.460Z,1.74
2023-03-16T14:57:08.989Z,1.64
2023-03-16T14:59:38.214Z,1.77
2023-03-16T15:02:18.386Z,1.67
2023-03-16T15:04:49.442Z,1.70
2023-03-16T15:07:29.244Z,1.51
2023-03-16T15:10:05.125Z,1.54
2023-03-16T15:12:37.679Z,1.68
2023-03-16T15:15:17.712Z,1.83
2023-03-16T15:17:47.883Z,1.82
2023-03-16T15:20:19.809Z,1.83
2023-03-16T15:22:51.026Z,1.93
2023-03-16T15:25:29.934Z,1.91
2023-03-16T15:28:01.860Z,1.77
2023-03-16T15:30:32.188Z,1.83
2023-03-16T15:33:07.166Z,1.78
2023-03-16T15:35:38.302Z,1.71
2023-03-16T15:41:02.749Z,1.66
2023-03-16T15:43:34.172Z,1.75
2023-03-16T15:46:04.723Z,1.76
2023-03-16T15:48:34.602Z,1.51
2023-03-16T15:51:08.238Z,1.60
2023-03-16T15:53:40.945Z,1.69
2023-03-16T15:56:12.800Z,1.73
2023-03-16T15:58:52.409Z,1.76
2023-03-16T16:01:25.084Z,1.73
2023-03-16T16:03:59.584Z,1.68
2023-03-16T16:06:29.970Z,1.59
2023-03-16T16:09:06.101Z,1.72
2023-03-16T16:11:35.447Z,1.66
2023-03-16T16:14:11.989Z,1.70
2023-03-16T16:16:41.644Z,1.79
2023-03-16T16:19:15.216Z,1.64
2023-03-16T16:21:45.927Z,1.73
2023-03-16T16:24:15.186Z,1.63
2023-03-16T16:26:54.804Z,1.55
2023-03-16T16:29:29.917Z,1.78
2023-03-16T16:31:59.280Z,1.73
2023-03-16T16:34:28.802Z,1.67
2023-03-16T16:37:08.226Z,1.65
2023-03-16T16:39:40.066Z,1.77
2023-03-16T16:42:18.023Z,1.91
2023-03-16T16:44:49.168Z,2.05
2023-03-16T16:47:22.414Z,1.99
2023-03-16T16:49:52.251Z,2.03
2023-03-16T16:52:22.202Z,1.83
2023-03-16T16:54:51.345Z,1.94
2023-03-16T16:57:21.986Z,2.05
2023-03-16T16:59:53.126Z,2.12
2023-03-16T17:02:33.156Z,2.16
2023-03-16T17:05:09.027Z,2.15
2023-03-16T17:07:38.748Z,2.08
2023-03-16T17:10:09.359Z,2.14
2023-03-16T17:12:43.575Z,1.96
2023-03-16T17:15:29.022Z,1.96
2023-03-16T17:18:08.852Z,1.80
2023-03-16T17:20:38.514Z,1.89
2023-03-16T17:23:28.857Z,1.57
2023-03-16T17:25:59.858Z,1.68
2023-03-16T17:28:30.851Z,1.76
2023-03-16T17:31:02.194Z,1.87
2023-03-16T17:33:31.556Z,1.95
2023-03-16T17:36:01.567Z,1.75
2023-03-16T17:38:30.934Z,1.75
2023-03-16T17:41:00.258Z,1.61
2023-03-16T17:43:31.437Z,1.77
2023-03-16T17:46:04.959Z,1.76
2023-03-16T17:48:40.761Z,1.62
2023-03-16T17:51:14.787Z,1.82
2023-03-16T17:53:48.985Z,1.91
2023-03-16T17:56:20.480Z,1.97
2023-03-16T17:58:58.907Z,2.00
2023-03-16T18:01:35.509Z,2.09
2023-03-16T18:06:50.874Z,2.32
2023-03-16T18:09:27.008Z,2.29
2023-03-16T18:11:57.274Z,2.11
2023-03-16T18:14:36.298Z,2.06
2023-03-16T18:17:17.665Z,2.06
2023-03-16T18:19:48.451Z,2.13
2023-03-16T18:22:19.793Z,2.07
2023-03-16T18:25:00.577Z,1.65
2023-03-16T18:27:29.856Z,1.99
2023-03-16T18:29:59.565Z,2.06
2023-03-16T18:32:32.061Z,2.10
2023-03-16T18:35:03.834Z,1.94
2023-03-16T18:37:38.569Z,2.00
2023-03-16T18:40:12.384Z,2.04
2023-03-16T18:42:48.446Z,2.05
2023-03-16T18:45:18.511Z,2.00
2023-03-16T18:47:58.271Z,2.04
2023-03-16T18:50:30.470Z,1.92
2023-03-16T18:52:59.752Z,1.92
2023-03-16T18:55:35.260Z,1.96
2023-03-16T18:58:13.241Z,1.72
2023-03-16T19:00:42.629Z,1.86
2023-03-16T19:03:23.254Z,1.94
2023-03-16T19:05:52.662Z,1.72
2023-03-16T19:08:22.961Z,1.89
2023-03-16T19:11:05.213Z,1.89
2023-03-16T19:13:34.366Z,1.88
2023-03-16T19:16:04.712Z,1.78
2023-03-16T19:18:41.649Z,1.79
2023-03-16T19:21:14.743Z,1.85
2023-03-16T19:23:55.930Z,1.62
2023-03-16T19:26:25.395Z,1.64
2023-03-16T19:28:54.616Z,1.72
2023-03-16T19:31:32.340Z,1.68
2023-03-16T19:34:03.599Z,1.76
2023-03-16T19:36:44.155Z,1.69
2023-03-16T19:39:15.077Z,1.68
2023-03-16T19:44:24.856Z,1.62
2023-03-16T19:47:04.224Z,1.74
2023-03-16T19:49:35.467Z,1.69
2023-03-16T19:52:04.633Z,1.69
2023-03-16T19:54:34.615Z,1.52
2023-03-16T19:57:18.633Z,1.51
2023-03-16T19:59:51.009Z,1.49
2023-03-16T20:02:29.019Z,1.66
2023-03-16T20:05:00.236Z,1.71
2023-03-16T20:07:37.695Z,1.57
2023-03-16T20:10:07.575Z,1.38
2023-03-16T20:12:38.271Z,1.59
2023-03-16T20:15:08.285Z,1.70
2023-03-16T20:17:37.872Z,1.66
2023-03-16T20:20:21.894Z,1.67
2023-03-16T20:22:52.026Z,1.72
2023-03-16T20:25:34.743Z,1.65
2023-03-16T20:28:04.839Z,1.57
2023-03-16T20:30:34.277Z,1.52
2023-03-16T20:33:08.432Z,1.58
2023-03-16T20:38:15.639Z,1.50
2023-03-16T20:40:46.777Z,1.34
2023-03-16T20:43:27.220Z,1.05
2023-03-16T20:46:05.533Z,1.08
2023-03-16T20:48:35.107Z,0.95
2023-03-16T20:51:07.958Z,1.09
2023-03-16T20:53:37.486Z,1.07
2023-03-16T20:56:07.354Z,1.04
2023-03-16T20:58:37.595Z,1.03
2023-03-16T21:01:17.437Z,0.90
2023-03-16T21:03:48.222Z,0.98
2023-03-16T21:06:29.391Z,1.08
2023-03-16T21:09:00.759Z,1.06
2023-03-16T21:11:36.252Z,0.97
2023-03-16T21:14:07.422Z,0.98
2023-03-16T21:16:36.779Z,1.06
2023-03-16T21:19:13.828Z,1.21
2023-03-16T21:21:45.974Z,1.26
2023-03-16T21:24:15.230Z,1.14
2023-03-16T21:26:46.993Z,1.18
2023-03-16T21:29:23.253Z,1.26
2023-03-16T21:31:54.882Z,1.14
2023-03-16T21:34:32.743Z,1.01
2023-03-16T21:37:03.917Z,1.25
2023-03-16T21:39:38.271Z,1.08
2023-03-16T21:42:07.588Z,0.96
2023-03-16T21:44:37.202Z,0.99
2023-03-16T21:47:24.054Z,1.11
2023-03-16T21:49:53.433Z,1.02
2023-03-16T21:52:27.761Z,1.08
2023-03-16T21:55:02.182Z,0.89
2023-03-16T21:57:37.048Z,0.87
2023-03-16T22:00:07.224Z,0.92
2023-03-16T22:02:37.210Z,0.92
2023-03-16T22:05:26.595Z,0.65
2023-03-16T22:08:03.456Z,1.02
2023-03-16T22:10:32.735Z,1.13
2023-03-16T22:13:01.784Z,0.93
2023-03-16T22:15:31.525Z,1.07
2023-03-16T22:18:03.896Z,0.91
2023-03-16T22:20:33.452Z,0.69
2023-03-16T22:23:04.541Z,0.81
2023-03-16T22:25:33.767Z,0.85
2023-03-16T22:28:03.767Z,0.81
2023-03-16T22:30:33.227Z,0.76
2023-03-16T22:33:02.567Z,0.88
2023-03-16T22:35:35.053Z,0.65
2023-03-16T22:38:08.688Z,0.78
2023-03-16T22:40:39.700Z,0.82
2023-03-16T22:43:16.300Z,0.68
2023-03-16T22:45:45.804Z,0.61
2023-03-16T22:48:19.995Z,0.32
2023-03-16T22:50:49.276Z,0.49
2023-03-16T22:53:29.929Z,0.79
2023-03-16T22:55:59.297Z,0.85
2023-03-16T22:58:39.720Z,0.78
2023-03-16T23:01:17.691Z,0.72
2023-03-16T23:03:47.535Z,0.83
2023-03-16T23:06:21.680Z,0.79
2023-03-16T23:08:54.035Z,0.64
2023-03-16T23:11:25.845Z,0.54
2023-03-16T23:13:56.356Z,0.50
2023-03-16T23:16:28.779Z,0.50
2023-03-16T23:19:04.412Z,0.49
2023-03-16T23:21:40.049Z,0.54
2023-03-16T23:24:16.320Z,0.64
2023-03-16T23:26:45.871Z,0.67
2023-03-16T23:29:16.075Z,0.72
2023-03-16T23:31:45.353Z,0.73
2023-03-16T23:34:15.909Z,0.80
2023-03-16T23:36:45.463Z,0.70
2023-03-16T23:39:16.601Z,0.49
2023-03-16T23:47:06.653Z,0.52
2023-03-16T23:49:38.460Z,0.54
2023-03-16T23:52:07.694Z,0.74
2023-03-16T23:54:38.915Z,0.53
2023-03-16T23:57:13.217Z,0.47
2023-03-16T23:59:42.304Z,0.62
